Time;durP1;ratioP1;P1;durP2;ratioP2;P2;SDS_P1;SDS_P2;PMS_P1;PMS_P2;Temp;Humidity;BMP_temperature;BMP_pressure;BME280_temperature;BME280_humidity;BME280_pressure;Samples;Min_cycle;Max_cycle;Signal;HPM_P1;HPM_P2
2024/04/19 00:02:22;;;;;;;;;15.80;14.20;;;;;5.25;89.35;99176.13;6298882;20;2803428;-45
2024/04/19 00:04:48;;;;;;;;;13.00;13.00;;;;;5.63;88.14;99180.50;6274108;20;2799372;-45
2024/04/19 00:07:15;;;;;;;;;14.00;12.00;;;;;5.54;87.81;99178.31;6272895;20;2790928;-43
2024/04/19 00:09:44;;;;;;;;;13.60;13.40;;;;;5.50;88.10;99183.78;6294676;20;2810791;-43
2024/04/19 00:12:11;;;;;;;;;12.00;12.00;;;;;5.57;88.99;99173.69;6270282;20;2790898;-43
2024/04/19 00:14:38;;;;;;;;;12.00;12.00;;;;;4.98;92.94;99178.31;6307140;20;2815936;-43
2024/04/19 00:17:05;;;;;;;;;16.00;13.33;;;;;4.73;96.30;99183.03;6273256;20;2811835;-44
2024/04/19 00:19:33;;;;;;;;;31.00;25.50;;;;;4.53;98.54;99178.59;6301993;20;2851943;-44
2024/04/19 00:22:00;;;;;;;;;15.00;15.00;;;;;4.50;99.28;99174.31;6274280;20;2820096;-44
2024/04/19 00:24:27;;;;;;;;;14.67;14.67;;;;;4.50;99.39;99176.97;6274229;20;2806631;-45
2024/04/19 00:26:54;;;;;;;;;16.33;14.33;;;;;4.47;100.00;99179.75;6303102;20;3549253;-44
2024/04/19 00:29:21;;;;;;;;;12.00;12.00;;;;;4.12;100.00;99179.50;6304896;20;2801415;-44
2024/04/19 00:31:47;;;;;;;;;12.50;11.00;;;;;4.37;100.00;99189.06;6273318;20;2784702;-43
2024/04/19 00:34:15;;;;;;;;;17.00;17.00;;;;;4.35;100.00;99175.00;6272644;20;3572210;-43
2024/04/19 00:36:42;;;;;;;;;21.50;17.00;;;;;3.98;100.00;99173.94;6304236;20;2814848;-45
2024/04/19 00:39:10;;;;;;;;;43.33;36.33;;;;;3.90;100.00;99184.03;6272038;20;2862936;-45
2024/04/19 00:41:37;;;;;;;;;27.00;25.50;;;;;3.67;100.00;99183.19;6299232;20;2500307;-43
2024/04/19 00:44:04;;;;;;;;;18.00;16.00;;;;;3.63;100.00;99184.22;6270557;20;3554493;-43
2024/04/19 00:46:32;;;;;;;;;22.67;19.00;;;;;3.84;100.00;99189.59;6303361;20;3549438;-45
2024/04/19 00:49:00;;;;;;;;;11.80;11.80;;;;;3.71;100.00;99189.22;6328297;20;2788938;-44
2024/04/19 00:51:29;;;;;;;;;14.80;11.40;;;;;4.15;100.00;99187.34;6305781;20;2802409;-43
2024/04/19 00:53:56;;;;;;;;;13.00;12.00;;;;;4.00;100.00;99193.31;6272311;20;2794204;-43
2024/04/19 00:56:24;;;;;;;;;15.67;14.67;;;;;3.55;100.00;99199.63;6269370;20;3548243;-45
2024/04/19 00:58:52;;;;;;;;;19.00;16.67;;;;;3.77;100.00;99191.66;6300473;20;3557577;-43
2024/04/19 01:01:20;;;;;;;;;14.67;13.33;;;;;4.11;100.00;99192.88;6269469;20;2814938;-43
2024/04/19 01:03:48;;;;;;;;;15.00;12.67;;;;;3.94;100.00;99196.25;6302755;20;3539869;-43
2024/04/19 01:06:15;;;;;;;;;13.67;13.67;;;;;3.83;100.00;99187.88;6300405;20;3537752;-43
2024/04/19 01:08:45;;;;;;;;;13.80;13.80;;;;;4.17;100.00;99188.16;6327509;20;2806537;-43
2024/04/19 01:11:14;;;;;;;;;14.80;11.80;;;;;3.75;100.00;99196.16;6294154;20;2823286;-44
2024/04/19 01:13:42;;;;;;;;;11.50;11.50;;;;;3.81;100.00;99192.38;6269262;20;2789867;-45
2024/04/19 01:16:09;;;;;;;;;13.00;13.00;;;;;4.36;98.17;99197.97;6271361;20;2805493;-43
2024/04/19 01:18:35;;;;;;;;;12.00;10.50;;;;;3.97;99.55;99190.78;6270506;20;2789898;-45
2024/04/19 01:21:02;;;;;;;;;12.50;12.50;;;;;3.89;100.00;99198.22;6271870;20;2792022;-43
2024/04/19 01:23:29;;;;;;;;;13.00;13.00;;;;;3.83;100.00;99201.16;6271758;20;2809688;-44
2024/04/19 01:26:04;;;;;;;;;16.00;13.40;;;;;3.60;100.00;99210.06;6291996;20;2808769;-43
2024/04/19 01:28:31;;;;;;;;;14.50;12.00;;;;;3.35;100.00;99212.84;6270386;20;2807675;-44
2024/04/19 01:30:58;;;;;;;;;15.00;13.00;;;;;3.21;100.00;99216.91;6269500;20;2817056;-44
2024/04/19 01:33:24;;;;;;;;;11.00;11.00;;;;;3.40;100.00;99217.03;6268243;20;2805478;-44
2024/04/19 01:35:53;;;;;;;;;16.40;15.40;;;;;3.56;100.00;99224.41;6293530;20;2810684;-43
2024/04/19 01:38:19;;;;;;;;;16.00;14.50;;;;;3.85;100.00;99217.88;6271327;20;2814892;-45
2024/04/19 01:40:48;;;;;;;;;18.83;16.67;;;;;3.96;100.00;99216.50;6292367;20;2827377;-46
2024/04/19 01:43:15;;;;;;;;;18.50;14.00;;;;;4.01;100.00;99218.97;6299835;20;2835725;-45
2024/04/19 01:45:42;;;;;;;;;17.00;12.00;;;;;3.71;100.00;99221.97;6269586;20;2796102;-44
2024/04/19 01:48:10;;;;;;;;;16.40;14.60;;;;;3.95;100.00;99214.78;6294505;20;2817980;-44
2024/04/19 01:50:38;;;;;;;;;18.33;15.33;;;;;4.16;100.00;99222.75;6268728;20;3558601;-43
2024/04/19 01:53:06;;;;;;;;;15.20;13.40;;;;;3.83;100.00;99220.59;6324442;20;2803461;-43
2024/04/19 01:55:34;;;;;;;;;15.00;13.00;;;;;3.94;100.00;99228.09;6268585;20;2811805;-43
2024/04/19 01:58:02;;;;;;;;;11.80;11.80;;;;;4.49;94.79;99233.72;6326301;20;2792004;-44
2024/04/19 02:00:30;;;;;;;;;18.00;13.33;;;;;4.31;95.11;99226.53;6269553;20;3560697;-45
2024/04/19 02:02:57;;;;;;;;;11.50;10.00;;;;;3.85;99.35;99228.50;6304206;20;2796125;-44
2024/04/19 02:05:23;;;;;;;;;12.00;12.00;;;;;3.54;100.00;99227.09;6275928;20;2788846;-43
2024/04/19 02:07:52;;;;;;;;;14.60;13.20;;;;;3.78;100.00;99227.03;6298840;20;2810899;-46
2024/04/19 02:10:18;;;;;;;;;13.00;12.50;;;;;3.56;100.00;99227.91;6275396;20;2816962;-45
2024/04/19 02:12:47;;;;;;;;;14.25;11.50;;;;;3.30;100.00;99227.16;6304970;20;2802484;-44
2024/04/19 02:15:14;;;;;;;;;13.00;11.00;;;;;3.00;100.00;99228.31;6274040;20;2782589;-43
2024/04/19 02:17:42;;;;;;;;;14.20;10.40;;;;;2.62;100.00;99225.34;6302242;20;2793989;-44
2024/04/19 02:20:11;;;;;;;;;14.20;11.20;;;;;2.97;100.00;99228.44;6301384;20;2784775;-45
2024/04/19 02:22:38;;;;;;;;;14.33;10.67;;;;;2.95;100.00;99232.94;6273557;20;2787850;-43
2024/04/19 02:25:05;;;;;;;;;14.00;11.00;;;;;3.09;100.00;99235.94;6304767;20;2798199;-43
2024/04/19 02:33:02;;;;;;;;;11.00;10.00;;;;;3.37;100.00;99232.19;6276020;20;2798262;-43
2024/04/19 02:35:30;;;;;;;;;10.00;10.00;;;;;3.69;100.00;99234.44;6291373;20;1821219;-43
2024/04/19 02:37:56;;;;;;;;;13.00;10.00;;;;;3.54;100.00;99229.75;6305334;20;2794066;-44
2024/04/19 02:40:23;;;;;;;;;0.00;0.00;;;;;3.71;100.00;99237.91;6274831;20;2723270;-44
2024/04/19 02:42:49;;;;;;;;;13.50;9.50;;;;;3.82;100.00;99239.22;6303857;20;2771149;-44
2024/04/19 02:45:16;;;;;;;;;14.00;13.00;;;;;3.78;100.00;99229.69;6272240;20;2796227;-46
2024/04/19 02:47:43;;;;;;;;;15.00;14.00;;;;;3.92;100.00;99219.34;6276265;20;2814971;-50
2024/04/19 02:50:09;;;;;;;;;14.00;12.00;;;;;3.93;100.00;99229.03;6274367;20;2796257;-46
2024/04/19 02:52:36;;;;;;;;;11.00;11.00;;;;;3.85;100.00;99229.38;6273433;20;2787930;-50
2024/04/19 02:55:05;;;;;;;;;11.20;11.20;;;;;3.92;100.00;99232.59;6299336;20;2786758;-50
2024/04/19 02:57:31;;;;;;;;;10.00;10.00;;;;;3.89;100.00;99227.44;6275864;20;2791961;-46
2024/04/19 02:59:58;;;;;;;;;10.00;10.00;;;;;3.84;100.00;99226.75;6273440;20;2792057;-46
2024/04/19 03:02:28;;;;;;;;;15.57;12.86;;;;;3.76;100.00;99228.88;6316117;20;1814998;-46
2024/04/19 03:04:57;;;;;;;;;18.20;14.60;;;;;3.81;100.00;99227.75;6330805;20;2822228;-44
2024/04/19 03:07:25;;;;;;;;;14.20;12.40;;;;;3.89;100.00;99219.47;6297457;20;2811825;-44
2024/04/19 03:09:52;;;;;;;;;17.67;14.33;;;;;3.70;100.00;99222.88;6273390;20;3554425;-45
2024/04/19 03:12:19;;;;;;;;;14.00;12.00;;;;;3.83;100.00;99225.91;6305504;20;2792033;-45
2024/04/19 03:14:49;;;;;;;;;13.71;9.71;;;;;3.64;100.00;99231.13;6313652;20;1812866;-47
2024/04/19 03:17:16;;;;;;;;;19.50;14.00;;;;;3.62;100.00;99232.97;6305345;20;2820103;-45
2024/04/19 03:19:45;;;;;;;;;14.60;11.20;;;;;3.69;100.00;99239.75;6296710;20;2796160;-45
2024/04/19 03:22:11;;;;;;;;;11.00;11.00;;;;;3.54;100.00;99235.06;6275071;20;2784716;-46
2024/04/19 03:24:38;;;;;;;;;10.50;10.00;;;;;3.44;100.00;99233.69;6269971;20;2791996;-44
2024/04/19 03:27:06;;;;;;;;;16.40;15.00;;;;;3.28;100.00;99229.00;6299194;20;2822213;-43
2024/04/19 03:29:33;;;;;;;;;15.00;14.00;;;;;3.38;100.00;99226.00;6272327;20;2819082;-44
2024/04/19 03:32:00;;;;;;;;;14.00;14.00;;;;;3.12;100.00;99233.16;6274615;20;2814874;-45
2024/04/19 03:34:27;;;;;;;;;17.00;13.00;;;;;3.47;100.00;99236.22;6274657;20;3537872;-44
2024/04/19 03:36:54;;;;;;;;;17.50;13.00;;;;;3.41;100.00;99242.63;6305255;20;2821118;-43
2024/04/19 03:39:20;;;;;;;;;14.50;13.50;;;;;3.32;100.00;99239.47;6273849;20;2811730;-45
2024/04/19 03:41:51;;;;;;;;;11.14;11.14;;;;;3.41;100.00;99233.81;6314144;20;1824285;-44
2024/04/19 03:47:06;;;;;;;;;17.40;13.40;;;;;3.37;100.00;99245.47;6330414;20;2819197;-44
2024/04/19 03:49:32;;;;;;;;;17.00;15.00;;;;;3.23;100.00;99252.19;6273151;20;2823180;-43
2024/04/19 03:51:59;;;;;;;;;14.00;11.00;;;;;3.27;100.00;99251.16;6275155;20;2790962;-44
2024/04/19 03:54:25;;;;;;;;;14.00;13.00;;;;;3.32;100.00;99248.31;6273925;20;2791959;-44
2024/04/19 03:56:56;;;;;;;;;17.00;12.29;;;;;3.29;100.00;99249.31;6313626;20;1827388;-45
2024/04/19 03:59:23;;;;;;;;;14.00;14.00;;;;;3.41;100.00;99247.94;6301975;20;2806521;-46
2024/04/19 04:01:49;;;;;;;;;13.00;11.00;;;;;3.15;100.00;99254.25;6305517;20;2792100;-45
2024/04/19 04:04:18;;;;;;;;;16.00;14.20;;;;;2.98;100.00;99252.25;6297525;20;2809741;-44
2024/04/19 04:06:46;;;;;;;;;15.60;13.20;;;;;2.92;100.00;99256.91;6297929;20;2815964;-44
2024/04/19 04:09:13;;;;;;;;;12.00;10.00;;;;;3.07;100.00;99259.00;6271883;20;2774291;-44
2024/04/19 04:11:40;;;;;;;;;14.00;13.00;;;;;2.80;100.00;99268.84;6273577;20;2788832;-43
2024/04/19 04:14:08;;;;;;;;;13.50;10.50;;;;;2.50;100.00;99263.75;6272880;20;2789891;-47
2024/04/19 04:16:35;;;;;;;;;14.50;14.00;;;;;2.98;100.00;99268.19;6272437;20;2810843;-47
2024/04/19 04:19:04;;;;;;;;;15.00;13.00;;;;;2.48;100.00;99272.66;6273609;20;2788810;-44
2024/04/19 04:21:32;;;;;;;;;17.60;14.80;;;;;2.18;100.00;99264.84;6299583;20;2812874;-44
2024/04/19 04:24:02;;;;;;;;;14.50;13.67;;;;;2.51;100.00;99272.56;6314603;20;1819138;-45
2024/04/19 04:26:30;;;;;;;;;16.33;14.00;;;;;2.84;100.00;99271.34;6298800;20;3545615;-44
2024/04/19 04:28:57;;;;;;;;;16.00;13.67;;;;;2.75;100.00;99276.97;6302078;20;2796307;-43
2024/04/19 04:31:24;;;;;;;;;15.00;15.00;;;;;2.80;100.00;99285.63;6302775;20;2803418;-47
2024/04/19 04:33:51;;;;;;;;;14.67;11.67;;;;;3.24;100.00;99291.06;6272866;20;3542038;-44
2024/04/19 04:36:19;;;;;;;;;17.67;17.00;;;;;3.48;100.00;99296.34;6302719;20;3555518;-46
2024/04/19 04:38:46;;;;;;;;;18.33;15.00;;;;;3.58;100.00;99303.03;6302024;20;3548301;-44
2024/04/19 04:41:14;;;;;;;;;20.00;18.00;;;;;3.57;100.00;99300.44;6303748;20;3573289;-44
2024/04/19 04:43:42;;;;;;;;;18.67;17.00;;;;;5.26;95.84;99302.06;6303397;20;3554492;-46
2024/04/19 04:46:09;;;;;;;;;16.00;13.33;;;;;4.49;95.97;99301.97;6302389;20;3556549;-44
2024/04/19 04:48:37;;;;;;;;;14.67;14.67;;;;;4.13;99.59;99303.47;6303144;20;3548204;-46
2024/04/19 04:51:04;;;;;;;;;16.50;16.50;;;;;4.92;98.03;99308.91;6305667;20;2815904;-44
2024/04/19 04:53:31;;;;;;;;;18.00;16.00;;;;;5.18;94.96;99309.53;6272217;20;3555525;-44
2024/04/19 04:55:58;;;;;;;;;14.33;14.33;;;;;6.04;85.09;99310.84;6301026;20;3540884;-44
2024/04/19 04:58:26;;;;;;;;;17.67;13.67;;;;;5.45;87.41;99304.72;6302528;20;3554429;-45
2024/04/19 05:00:56;;;;;;;;;17.00;15.67;;;;;5.28;89.72;99302.88;6300145;20;3551459;-46
2024/04/19 05:03:24;;;;;;;;;17.33;15.67;;;;;5.62;87.12;99303.97;6270622;20;3554524;-48
2024/04/19 05:05:51;;;;;;;;;18.67;16.00;;;;;5.32;86.73;99303.56;6302744;20;3546198;-45
2024/04/19 05:08:18;;;;;;;;;19.00;18.00;;;;;5.00;90.18;99312.13;6305111;20;2826384;-45
2024/04/19 05:10:44;;;;;;;;;13.00;9.50;;;;;6.40;87.69;99307.28;6270793;20;2775297;-45
2024/04/19 05:13:12;;;;;;;;;14.67;12.67;;;;;10.07;65.87;99321.72;6272080;20;2794210;-44
2024/04/19 05:15:38;;;;;;;;;12.00;12.00;;;;;11.15;56.95;99331.47;6300472;20;2793000;-44
2024/04/19 05:18:07;;;;;;;;;15.00;12.40;;;;;12.60;50.95;99325.41;6294962;20;2798329;-45
2024/04/19 05:20:33;;;;;;;;;11.50;11.50;;;;;9.32;57.64;99318.47;6271865;20;2786725;-45
2024/04/19 05:23:02;;;;;;;;;12.40;11.00;;;;;9.78;59.65;99327.13;6297993;20;2783616;-45
2024/04/19 05:25:28;;;;;;;;;10.50;10.00;;;;;7.33;67.18;99322.88;6269416;20;2780483;-45
2024/04/19 05:27:55;;;;;;;;;14.00;11.00;;;;;9.09;65.17;99330.63;6281972;20;2735716;-44
2024/04/19 05:30:22;;;;;;;;;13.50;11.00;;;;;7.50;70.64;99328.16;6268334;20;2792181;-44
2024/04/19 05:32:50;;;;;;;;;11.20;9.00;;;;;8.13;68.06;99328.16;6295296;20;2762796;-44
2024/04/19 05:35:17;;;;;;;;;12.00;12.00;;;;;7.33;74.36;99322.88;6268638;20;2797223;-44
2024/04/19 05:37:45;;;;;;;;;16.33;14.00;;;;;7.20;74.55;99328.88;6307465;20;3537874;-44
2024/04/19 05:40:11;;;;;;;;;12.00;11.50;;;;;6.90;75.91;99322.47;6308890;20;2794050;-52
2024/04/19 05:42:40;;;;;;;;;11.00;10.40;;;;;7.00;74.51;99323.72;6302649;20;2786826;-45
2024/04/19 05:45:08;;;;;;;;;10.60;9.80;;;;;7.34;72.71;99325.44;6299999;20;2787774;-44
2024/04/19 05:47:36;;;;;;;;;16.33;14.00;;;;;8.20;70.61;99326.00;6275560;20;3536557;-47
2024/04/19 05:50:02;;;;;;;;;11.00;11.00;;;;;8.69;65.96;99331.19;6304645;20;2786739;-44
2024/04/19 05:52:31;;;;;;;;;13.00;12.00;;;;;7.82;68.01;99333.50;6277333;20;2788968;-44
2024/04/19 05:54:57;;;;;;;;;10.00;10.00;;;;;7.45;69.45;99331.09;6274980;20;2794040;-44
2024/04/19 05:57:24;;;;;;;;;12.00;12.00;;;;;7.54;70.03;99342.22;6276383;20;2792037;-44
2024/04/19 05:59:54;;;;;;;;;13.00;12.80;;;;;7.22;70.95;99335.00;6300553;20;2802361;-47
2024/04/19 06:02:21;;;;;;;;;13.00;9.50;;;;;7.45;70.51;99336.44;6276788;20;2774360;-47
2024/04/19 06:04:47;;;;;;;;;9.50;9.00;;;;;7.42;70.45;99339.25;6275048;20;2743157;-46
2024/04/19 06:07:16;;;;;;;;;10.60;10.60;;;;;7.57;70.02;99337.56;6299373;20;2794049;-44
2024/04/19 06:09:44;;;;;;;;;10.40;10.40;;;;;7.91;67.66;99333.88;6300379;20;2789903;-43
2024/04/19 06:12:11;;;;;;;;;6.00;6.00;;;;;7.90;65.96;99339.31;6278977;20;2737794;-47
2024/04/19 06:14:38;;;;;;;;;8.00;8.00;;;;;7.74;64.76;99338.44;6325148;20;1804691;-46
2024/04/19 06:17:05;;;;;;;;;9.50;9.50;;;;;7.68;67.23;99345.84;6306771;20;2772278;-44
2024/04/19 06:19:32;;;;;;;;;9.25;7.00;;;;;7.88;64.57;99336.72;6295187;20;1805608;-43
2024/04/19 06:21:59;;;;;;;;;7.50;5.50;;;;;8.17;62.76;99341.38;6311119;20;2738821;-44
2024/04/19 06:24:26;;;;;;;;;6.00;6.00;;;;;7.86;62.28;99340.44;6278767;20;2746155;-46
2024/04/19 06:26:52;;;;;;;;;5.00;5.00;;;;;8.27;61.54;99346.09;6310406;20;2734771;-46
2024/04/19 06:29:19;;;;;;;;;6.00;6.00;;;;;8.45;61.73;99341.53;6310093;20;2740936;-47
2024/04/19 06:31:45;;;;;;;;;7.50;5.00;;;;;8.52;60.02;99345.56;6310058;20;2753808;-44
2024/04/19 06:34:13;;;;;;;;;5.50;5.00;;;;;8.25;60.05;99337.31;6295643;20;1804632;-44
2024/04/19 06:36:41;;;;;;;;;6.50;6.50;;;;;8.70;60.43;99337.41;6324509;20;1805551;-46
2024/04/19 06:39:19;;;;;;;;;2.00;2.00;;;;;8.93;59.95;99334.22;6326366;20;1805074;-46
2024/04/19 06:41:45;;;;;;;;;6.00;5.00;;;;;8.88;57.68;99341.66;6308528;20;2734661;-44
2024/04/19 06:44:12;;;;;;;;;5.00;5.00;;;;;9.33;56.94;99337.13;6307896;20;2754467;-44
2024/04/19 06:46:38;;;;;;;;;5.00;5.00;;;;;9.26;55.10;99330.41;6279159;20;2752420;-47
2024/04/19 06:49:05;;;;;;;;;6.00;6.00;;;;;9.47;55.41;99338.09;6277439;20;2736886;-46
2024/04/19 06:51:32;;;;;;;;;4.00;4.00;;;;;9.28;54.12;99344.59;6310353;20;2722184;-44
2024/04/19 06:53:58;;;;;;;;;5.00;5.00;;;;;9.31;54.16;99344.38;6310368;20;2733816;-45
2024/04/19 06:56:25;;;;;;;;;8.00;7.00;;;;;9.37;54.72;99338.69;6310670;20;2741956;-44
2024/04/19 06:58:51;;;;;;;;;6.00;6.00;;;;;9.65;53.04;99342.28;6278210;20;2734686;-45
2024/04/19 07:01:18;;;;;;;;;6.50;6.50;;;;;9.87;52.22;99341.75;6310115;20;2736790;-47
2024/04/19 07:03:44;;;;;;;;;8.00;8.00;;;;;10.12;51.93;99338.38;6278766;20;2744046;-45
2024/04/19 07:06:14;;;;;;;;;7.00;7.00;;;;;10.09;50.86;99331.38;6275097;20;2737916;-45
2024/04/19 07:08:41;;;;;;;;;6.00;6.00;;;;;10.40;50.79;99336.56;6278241;20;2735893;-48
2024/04/19 07:11:09;;;;;;;;;5.50;5.50;;;;;10.37;49.94;99339.47;6295420;20;1812309;-47
2024/04/19 07:13:36;;;;;;;;;6.00;6.00;;;;;10.56;51.41;99337.28;6311781;20;2739953;-45
2024/04/19 07:16:02;;;;;;;;;6.00;6.00;;;;;10.79;50.85;99342.91;6280118;20;2729462;-45
2024/04/19 07:18:29;;;;;;;;;0.00;0.00;;;;;10.91;49.16;99344.78;6282134;20;2694458;-44
2024/04/19 07:20:55;;;;;;;;;7.00;5.00;;;;;11.14;49.58;99346.72;6279450;20;2743027;-45
2024/04/19 07:23:22;;;;;;;;;5.50;5.50;;;;;11.13;49.33;99350.38;6279366;20;2747244;-45
2024/04/19 07:25:49;;;;;;;;;7.00;5.50;;;;;11.55;47.27;99345.63;6278680;20;2723209;-45
2024/04/19 07:28:16;;;;;;;;;4.50;4.50;;;;;11.46;46.96;99346.31;6280727;20;2738829;-52
2024/04/19 07:30:45;;;;;;;;;5.00;4.60;;;;;11.66;46.33;99350.25;6299195;20;2746141;-47
2024/04/19 07:33:11;;;;;;;;;3.00;3.00;;;;;11.45;46.91;99346.41;6311437;20;2732587;-42
2024/04/19 07:35:38;;;;;;;;;4.00;4.00;;;;;11.24;45.83;99344.25;6268815;20;2752558;-45
2024/04/19 07:38:05;;;;;;;;;3.50;3.50;;;;;11.49;45.58;99351.47;6273939;20;2755539;-47
2024/04/19 07:40:34;;;;;;;;;5.00;5.00;;;;;11.65;46.57;99344.00;6278781;20;2748210;-44
2024/04/19 07:43:01;;;;;;;;;4.00;4.00;;;;;11.47;44.39;99339.94;6279410;20;2745134;-44
2024/04/19 07:45:27;;;;;;;;;4.00;4.00;;;;;11.72;45.11;99343.59;6276620;20;2754569;-44
2024/04/19 07:47:54;;;;;;;;;3.00;3.00;;;;;11.83;46.09;99349.91;6279805;20;2751407;-45
2024/04/19 07:50:21;;;;;;;;;3.00;3.00;;;;;11.50;44.52;99342.41;6278098;20;2750289;-44
2024/04/19 07:52:49;;;;;;;;;4.00;4.00;;;;;11.52;44.34;99340.47;6274025;20;2752466;-46
2024/04/19 07:55:16;;;;;;;;;3.00;3.00;;;;;11.37;45.55;99333.50;6280250;20;2741972;-45
2024/04/19 07:57:48;;;;;;;;;2.00;2.00;;;;;12.02;44.13;99330.63;6276989;20;2742093;-47
2024/04/19 08:00:21;;;;;;;;;1.50;1.50;;;;;12.04;43.01;99328.69;6275844;20;2737826;-42
2024/04/19 08:02:48;;;;;;;;;6.50;6.50;;;;;11.94;42.16;99332.16;6279738;20;2734675;-45
2024/04/19 08:05:17;;;;;;;;;2.50;2.50;;;;;12.13;39.87;99328.97;6278670;20;2748595;-46
2024/04/19 08:07:43;;;;;;;;;4.00;2.00;;;;;12.59;41.42;99330.94;6273755;20;2739852;-45
2024/04/19 08:10:15;;;;;;;;;5.50;5.00;;;;;13.25;42.50;99323.16;6278869;20;2743064;-45
2024/04/19 08:12:46;;;;;;;;;4.00;4.00;;;;;12.80;42.80;99340.09;6277455;20;2748288;-45
2024/04/19 08:15:13;;;;;;;;;3.00;3.00;;;;;12.23;43.35;99332.72;6280773;20;2741937;-45
2024/04/19 08:17:41;;;;;;;;;3.00;3.00;;;;;12.92;43.58;99327.50;6278456;20;2737798;-45
2024/04/19 08:20:09;;;;;;;;;2.50;1.50;;;;;12.23;44.54;99324.63;6278284;20;2739992;-45
2024/04/19 08:22:36;;;;;;;;;4.00;2.00;;;;;12.82;42.81;99323.78;6276404;20;2750369;-45
2024/04/19 08:25:03;;;;;;;;;7.50;3.00;;;;;12.28;44.95;99325.16;6275771;20;2737306;-46
2024/04/19 08:27:30;;;;;;;;;3.00;3.00;;;;;13.24;41.54;99324.97;6276566;20;2757450;-45
2024/04/19 08:29:56;;;;;;;;;1.00;1.00;;;;;12.58;40.61;99313.91;6277380;20;2729451;-44
2024/04/19 08:32:23;;;;;;;;;1.00;1.00;;;;;13.90;41.56;99332.38;6279734;20;2719124;-44
2024/04/19 08:34:54;;;;;;;;;2.00;2.00;;;;;13.44;40.61;99322.59;6277525;20;2734704;-47
2024/04/19 08:37:22;;;;;;;;;3.50;2.00;;;;;13.17;40.22;99326.47;6278252;20;2748249;-46
2024/04/19 08:39:54;;;;;;;;;0.50;0.50;;;;;13.49;39.75;99323.09;6277122;20;2725286;-45
2024/04/19 08:42:21;;;;;;;;;1.50;1.50;;;;;12.75;39.44;99323.41;6279066;20;2728510;-45
2024/04/19 08:44:50;;;;;;;;;1.00;1.00;;;;;12.66;37.78;99318.72;6293268;20;1804995;-44
2024/04/19 08:47:18;;;;;;;;;10.00;10.00;;;;;12.39;37.13;99321.66;6305652;20;2789897;-44
2024/04/19 08:49:49;;;;;;;;;40.67;33.33;;;;;12.77;38.60;99315.19;6275453;20;3605481;-44
2024/04/19 08:52:19;;;;;;;;;2.00;2.00;;;;;13.25;38.28;99323.16;6278475;20;2745105;-45
2024/04/19 08:54:48;;;;;;;;;4.00;4.00;;;;;12.91;39.03;99315.84;6275475;20;2748366;-47
2024/04/19 08:57:16;;;;;;;;;0.00;0.00;;;;;13.38;36.85;99314.00;6296649;20;1801872;-46
2024/04/19 08:59:45;;;;;;;;;16.33;16.33;;;;;12.61;40.27;99308.31;6305570;20;3563542;-45
2024/04/19 09:02:14;;;;;;;;;74.67;64.33;;;;;12.63;39.87;99310.88;6306976;20;3636322;-45
2024/04/19 09:04:44;;;;;;;;;8.14;6.86;;;;;12.99;39.35;99304.47;6318095;20;1795556;-48
2024/04/19 09:07:10;;;;;;;;;0.00;0.00;;;;;13.91;39.29;99299.88;6309536;20;2729539;-46
2024/04/19 09:09:40;;;;;;;;;2.00;2.00;;;;;13.30;38.97;99302.97;6300854;20;2736741;-45
2024/04/19 09:12:08;;;;;;;;;1.50;1.00;;;;;13.61;39.02;99303.22;6311426;20;2729476;-46
2024/04/19 09:14:35;;;;;;;;;2.00;2.00;;;;;13.45;38.88;99302.72;6279990;20;2744138;-45
2024/04/19 09:17:03;;;;;;;;;2.50;1.50;;;;;14.06;38.92;99303.19;6281832;20;2739893;-44
2024/04/19 09:19:29;;;;;;;;;2.00;2.00;;;;;13.97;38.90;99293.97;6282024;20;2748320;-46
2024/04/19 09:21:57;;;;;;;;;4.00;4.00;;;;;13.96;40.74;99296.81;6280053;20;2749249;-46
2024/04/19 09:24:24;;;;;;;;;2.00;2.00;;;;;14.50;39.79;99290.50;6281756;20;2739888;-47
2024/04/19 09:27:00;;;;;;;;;1.50;1.50;;;;;14.04;38.46;99299.75;6280050;20;2728553;-46
2024/04/19 09:29:27;;;;;;;;;2.00;2.00;;;;;14.13;37.42;99296.28;6279609;20;2737796;-44
2024/04/19 09:31:56;;;;;;;;;1.00;1.00;;;;;14.07;38.30;99288.69;6282644;20;2731563;-44
2024/04/19 09:34:24;;;;;;;;;25.00;25.00;;;;;13.75;38.72;99291.34;6279889;20;3579455;-43
2024/04/19 09:36:52;;;;;;;;;5.50;5.50;;;;;13.66;38.83;99284.81;6280315;20;2745115;-47
2024/04/19 09:39:19;;;;;;;;;13.00;13.00;;;;;14.08;37.63;99285.00;6278732;20;3526406;-46
2024/04/19 09:41:49;;;;;;;;;4.00;3.50;;;;;14.49;35.85;99283.41;6311536;20;2749403;-44
2024/04/19 09:44:16;;;;;;;;;2.00;2.00;;;;;15.01;35.54;99289.78;6281582;20;2741315;-44
2024/04/19 09:46:49;;;;;;;;;4.00;4.00;;;;;14.54;36.49;99283.03;6280597;20;2744059;-45
2024/04/19 09:49:16;;;;;;;;;3.00;2.00;;;;;14.49;37.72;99284.25;6281616;20;2746164;-46
2024/04/19 09:51:49;;;;;;;;;1.00;1.00;;;;;13.11;38.24;99279.28;6282880;20;2724245;-47
2024/04/19 09:54:22;;;;;;;;;0.00;0.00;;;;;13.20;40.02;99271.44;6283135;20;2728420;-44
2024/04/19 09:57:00;;;;;;;;;6.00;2.00;;;;;14.49;38.30;99276.13;6281408;20;2750356;-43
2024/04/19 09:59:29;;;;;;;;;17.00;15.67;;;;;14.74;37.64;99273.22;6277742;20;3546640;-45
2024/04/19 10:01:57;;;;;;;;;1.00;1.00;;;;;13.43;37.76;99270.50;6311359;20;2724256;-44
2024/04/19 10:04:26;;;;;;;;;1.00;1.00;;;;;12.71;39.48;99270.72;6284198;20;2729481;-46
2024/04/19 10:06:56;;;;;;;;;2.75;2.75;;;;;11.94;40.53;99272.97;6295877;20;1805796;-43
2024/04/19 10:09:25;;;;;;;;;1.00;1.00;;;;;12.93;39.58;99262.72;6312173;20;2719068;-43
2024/04/19 10:11:54;;;;;;;;;1.00;1.00;;;;;13.78;37.51;99262.25;6297188;20;1805591;-43
2024/04/19 10:14:23;;;;;;;;;2.00;2.00;;;;;12.99;39.67;99252.44;6311817;20;2739906;-44
2024/04/19 10:16:50;;;;;;;;;1.00;1.00;;;;;12.43;40.04;99250.47;6281143;20;2728492;-43
2024/04/19 10:19:17;;;;;;;;;0.00;0.00;;;;;12.64;39.53;99248.81;6280949;20;2731560;-43
2024/04/19 10:21:44;;;;;;;;;1.00;1.00;;;;;14.20;37.46;99256.13;6284181;20;2732624;-46
2024/04/19 10:24:16;;;;;;;;;1.75;1.00;;;;;14.73;37.58;99252.63;6295246;20;1799380;-43
2024/04/19 10:26:55;;;;;;;;;1.00;1.00;;;;;15.72;37.46;99243.03;6311231;20;2749278;-44
2024/04/19 10:29:26;;;;;;;;;1.00;1.00;;;;;15.48;35.74;99246.91;6279585;20;2728484;-45
2024/04/19 10:31:56;;;;;;;;;1.00;1.00;;;;;14.78;36.83;99244.97;6294651;20;1805623;-45
2024/04/19 10:34:25;;;;;;;;;0.00;0.00;;;;;13.83;36.99;99243.00;6313196;20;2731544;-44
2024/04/19 10:36:55;;;;;;;;;4.40;4.40;;;;;14.86;36.39;99237.91;6301624;20;2748191;-46
2024/04/19 10:39:22;;;;;;;;;11.50;10.00;;;;;15.00;35.50;99231.28;6309298;20;2789212;-47
2024/04/19 10:41:53;;;;;;;;;1.00;1.00;;;;;14.90;36.10;99222.25;6282374;20;2722154;-50
2024/04/19 10:44:20;;;;;;;;;1.00;1.00;;;;;15.38;35.71;99237.88;6292038;20;2731532;-50
2024/04/19 10:46:49;;;;;;;;;11.00;7.50;;;;;15.19;37.51;99235.09;6282165;20;2754530;-48
2024/04/19 10:49:20;;;;;;;;;10.67;10.67;;;;;13.68;38.35;99223.50;6274015;20;2783750;-48
2024/04/19 10:51:53;;;;;;;;;15.00;15.00;;;;;13.65;39.90;99221.06;6305397;20;2498404;-45
2024/04/19 10:54:19;;;;;;;;;10.00;8.00;;;;;14.25;37.83;99219.66;6283227;20;2758702;-49
2024/04/19 10:56:46;;;;;;;;;7.00;5.50;;;;;14.85;35.89;99219.09;6282262;20;2744022;-48
2024/04/19 10:59:14;;;;;;;;;13.33;9.00;;;;;15.34;33.94;99234.59;6274370;20;3491959;-45
2024/04/19 11:01:41;;;;;;;;;1.00;1.00;;;;;14.73;33.46;99225.59;6310949;20;2731600;-46
2024/04/19 11:04:09;;;;;;;;;5.00;3.00;;;;;13.91;35.43;99212.66;6279605;20;2739846;-44
2024/04/19 11:06:37;;;;;;;;;2.50;1.50;;;;;13.29;37.51;99212.28;6283549;20;2736747;-47
2024/04/19 11:09:04;;;;;;;;;0.00;0.00;;;;;14.31;35.34;99212.88;6280221;20;2729456;-46
2024/04/19 11:11:37;;;;;;;;;1.00;1.00;;;;;13.94;35.80;99210.56;6279307;20;2732633;-48
2024/04/19 11:14:08;;;;;;;;;7.00;3.00;;;;;14.02;36.61;99207.22;6280669;20;2740941;-45
2024/04/19 11:16:38;;;;;;;;;10.00;9.14;;;;;12.63;39.85;99197.75;6318304;20;1796132;-51
2024/04/19 11:19:05;;;;;;;;;5.50;3.00;;;;;13.09;38.99;99197.69;6310472;20;2748193;-46
2024/04/19 11:21:32;;;;;;;;;1.00;1.00;;;;;13.02;38.62;99192.91;6282824;20;2461735;-50